Time;durP1;ratioP1;P1;durP2;ratioP2;P2;SDS_P1;SDS_P2;PMS_P1;PMS_P2;Temp;Humidity;BMP_temperature;BMP_pressure;BME280_temperature;BME280_humidity;BME280_pressure;Samples;Min_cycle;Max_cycle;Signal;HPM_P1;HPM_P2
2023/06/13 00:00:10;;;;;;;4.57;2.67;;;;;;;21.66;36.07;101254.47;5027408;28;20767;-78
2023/06/13 00:02:55;;;;;;;5.30;3.05;;;;;;;21.64;36.11;101249.19;5013447;28;20046;-78
2023/06/13 00:05:45;;;;;;;4.57;2.80;;;;;;;21.54;36.10;101251.66;5028945;28;20053;-78
2023/06/13 00:08:31;;;;;;;4.30;3.00;;;;;;;21.46;36.63;101251.34;5026067;28;20045;-78
2023/06/13 00:11:17;;;;;;;6.63;3.13;;;;;;;21.44;36.75;101247.91;5020460;28;20046;-78
2023/06/13 00:14:02;;;;;;;5.15;2.83;;;;;;;21.41;36.80;101257.03;5022454;28;20042;-78
2023/06/13 00:16:50;;;;;;;4.00;3.25;;;;;;;21.37;36.95;101249.28;5028004;28;20186;-78
2023/06/13 00:19:36;;;;;;;6.05;3.08;;;;;;;21.35;36.76;101251.22;5023665;28;20053;-76
2023/06/13 00:22:24;;;;;;;4.35;3.28;;;;;;;21.30;37.21;101250.69;5009240;28;20082;-81
2023/06/13 00:25:09;;;;;;;4.07;2.80;;;;;;;21.31;37.24;101236.31;5015574;28;20045;-81
2023/06/13 00:27:55;;;;;;;3.38;2.83;;;;;;;21.30;37.41;101239.94;5014689;28;20509;-81
2023/06/13 00:30:40;;;;;;;5.68;2.80;;;;;;;21.23;37.45;101244.88;5016426;28;20462;-81
2023/06/13 00:33:31;;;;;;;7.75;2.97;;;;;;;21.15;37.83;101244.56;5029093;28;20526;-81
2023/06/13 00:36:20;;;;;;;4.68;2.92;;;;;;;21.12;37.86;101239.41;5024554;28;20453;-81
2023/06/13 00:39:06;;;;;;;5.40;3.45;;;;;;;21.10;37.85;101235.03;5027148;28;20507;-80
2023/06/13 00:41:51;;;;;;;6.68;3.00;;;;;;;21.05;38.06;101239.00;5004427;28;20501;-79
2023/06/13 00:44:36;;;;;;;5.03;3.05;;;;;;;20.93;38.06;101240.66;5026509;28;20116;-79
2023/06/13 00:47:22;;;;;;;6.18;3.05;;;;;;;20.87;38.32;101236.56;5028835;28;20089;-82
2023/06/13 00:50:09;;;;;;;4.28;2.97;;;;;;;20.82;38.76;101238.72;5029091;28;20501;-81
2023/06/13 00:52:57;;;;;;;4.82;3.28;;;;;;;20.85;38.91;101235.84;5020164;28;20057;-81
2023/06/13 00:55:43;;;;;;;6.38;3.40;;;;;;;20.87;38.95;101235.72;5011211;28;20051;-84
2023/06/13 00:58:29;;;;;;;4.60;3.10;;;;;;;20.87;39.15;101236.56;5023916;28;20046;-84
2023/06/13 01:01:19;;;;;;;9.07;3.28;;;;;;;20.84;38.95;101241.28;5024004;28;20050;-84
2023/06/13 01:04:07;;;;;;;4.88;2.90;;;;;;;20.79;39.21;101236.25;5014696;28;20050;-83
2023/06/13 01:06:54;;;;;;;4.32;3.30;;;;;;;20.76;38.93;101231.97;5008404;28;20038;-78
2023/06/13 01:09:40;;;;;;;6.43;3.45;;;;;;;20.68;39.17;101226.22;5022587;28;20589;-78
2023/06/13 01:12:45;;;;;;;7.30;2.85;;;;;;;20.60;39.44;101225.88;5012382;28;20133;-77
2023/06/13 01:15:36;;;;;;;4.72;3.15;;;;;;;20.47;39.52;101221.34;5013191;28;20046;-81
2023/06/13 01:18:25;;;;;;;7.65;3.33;;;;;;;20.33;39.96;101227.59;5014047;28;20058;-77
2023/06/13 01:21:13;;;;;;;4.97;3.17;;;;;;;20.29;40.08;101222.56;5012733;28;20089;-77
2023/06/13 01:24:07;;;;;;;3.75;2.92;;;;;;;20.14;40.14;101225.25;5028524;28;20061;-77
2023/06/13 01:26:59;;;;;;;5.77;3.40;;;;;;;19.96;40.96;101221.94;5028171;28;20090;-77
2023/06/13 01:29:45;;;;;;;6.20;3.33;;;;;;;19.81;40.79;101225.59;5025520;28;20038;-77
2023/06/13 01:32:34;;;;;;;10.73;3.50;;;;;;;19.59;41.42;101226.06;5030125;28;20552;-77
2023/06/13 01:35:21;;;;;;;5.95;3.45;;;;;;;19.47;41.55;101220.53;5028625;28;20506;-77
2023/06/13 01:38:07;;;;;;;6.93;3.25;;;;;;;19.36;42.21;101223.00;5028376;28;20105;-77
2023/06/13 01:40:54;;;;;;;5.43;3.38;;;;;;;19.28;42.43;101222.63;5015833;28;20165;-77
2023/06/13 01:43:40;;;;;;;5.82;3.60;;;;;;;19.13;42.59;101227.94;5014249;28;20121;-76
2023/06/13 01:46:29;;;;;;;7.07;3.47;;;;;;;18.99;43.05;101235.91;5023293;28;20132;-76
2023/06/13 01:50:28;;;;;;;6.50;3.60;;;;;;;18.87;43.19;101229.47;5004267;28;20057;-76
2023/06/13 01:53:32;;;;;;;4.88;3.47;;;;;;;18.72;43.63;101232.06;4983865;28;20139;-77
2023/06/13 01:56:24;;;;;;;6.43;3.55;;;;;;;18.66;43.74;101226.25;5028810;28;20050;-77
2023/06/13 01:59:15;;;;;;;5.60;3.50;;;;;;;18.57;44.19;101219.63;5013996;28;20042;-76
2023/06/13 02:02:03;;;;;;;7.20;3.65;;;;;;;18.44;44.57;101225.66;5027702;28;20050;-76
2023/06/13 02:04:49;;;;;;;4.97;3.42;;;;;;;18.32;44.97;101221.03;5028320;28;20049;-77
2023/06/13 02:07:36;;;;;;;7.05;3.97;;;;;;;18.19;45.50;101222.69;5018597;28;20049;-76
2023/06/13 02:10:23;;;;;;;8.32;3.63;;;;;;;18.07;45.63;101222.44;5013946;28;20054;-76
2023/06/13 02:13:09;;;;;;;6.63;3.40;;;;;;;17.99;46.08;101222.84;5029028;28;20050;-77
2023/06/13 02:15:55;;;;;;;9.10;3.28;;;;;;;17.90;46.30;101217.16;5014851;28;20105;-76
2023/06/13 02:18:41;;;;;;;8.07;3.13;;;;;;;17.76;46.52;101225.88;5015971;28;20042;-76
2023/06/13 02:21:29;;;;;;;5.90;3.40;;;;;;;17.65;46.69;101221.16;5030608;28;20105;-76
2023/06/13 02:24:15;;;;;;;5.15;3.28;;;;;;;17.56;47.25;101221.66;5008267;28;20050;-76
2023/06/13 02:27:01;;;;;;;6.18;3.70;;;;;;;17.46;48.08;101221.25;5015313;28;20626;-76
2023/06/13 02:29:48;;;;;;;5.00;3.47;;;;;;;17.37;48.28;101219.97;5033270;28;20042;-77
2023/06/13 02:32:36;;;;;;;4.63;3.30;;;;;;;17.34;48.63;101228.13;5034041;28;20046;-77
2023/06/13 02:35:23;;;;;;;6.22;3.67;;;;;;;17.28;48.78;101228.44;5017009;28;20206;-77
2023/06/13 02:38:09;;;;;;;7.22;3.70;;;;;;;17.23;48.76;101226.88;5014547;28;20046;-77
2023/06/13 02:40:55;;;;;;;8.35;3.72;;;;;;;17.14;48.95;101223.84;5030358;28;20714;-77
2023/06/13 02:43:40;;;;;;;4.53;3.70;;;;;;;17.06;49.06;101227.75;5001552;28;20074;-77
2023/06/13 02:46:25;;;;;;;5.20;3.67;;;;;;;16.99;49.25;101230.81;5006936;28;20058;-78
2023/06/13 02:49:11;;;;;;;4.65;3.72;;;;;;;16.90;49.24;101224.97;5028116;28;20045;-77
2023/06/13 02:51:56;;;;;;;7.97;4.65;;;;;;;16.87;49.89;101226.94;5028448;28;20042;-77
2023/06/13 02:54:41;;;;;;;5.80;4.68;;;;;;;16.81;50.01;101216.59;5030735;28;20053;-77
2023/06/13 02:57:27;;;;;;;6.28;4.32;;;;;;;16.78;50.56;101217.63;5026760;28;20096;-74
2023/06/13 03:00:15;;;;;;;8.07;4.00;;;;;;;16.76;50.82;101208.84;5025256;28;20054;-73
2023/06/13 03:03:07;;;;;;;6.50;3.47;;;;;;;16.77;50.90;101215.91;5026652;28;20050;-79
2023/06/13 03:05:56;;;;;;;4.90;3.78;;;;;;;16.79;50.29;101218.47;5016129;28;20045;-80
2023/06/13 03:08:48;;;;;;;7.20;4.20;;;;;;;16.81;50.63;101216.59;5014202;28;20515;-78
2023/06/13 03:11:34;;;;;;;6.18;3.83;;;;;;;16.76;50.25;101211.50;5019801;28;20605;-79
2023/06/13 03:14:19;;;;;;;12.98;4.15;;;;;;;16.66;50.91;101216.41;5015254;28;20054;-80
2023/06/13 03:17:06;;;;;;;13.45;4.00;;;;;;;16.58;50.84;101218.59;5023529;28;20053;-80
2023/06/13 03:19:52;;;;;;;7.47;3.80;;;;;;;16.53;51.60;101208.19;5026850;28;20050;-79
2023/06/13 03:22:49;;;;;;;6.60;4.00;;;;;;;16.46;51.63;101218.28;5029744;28;20046;-79
2023/06/13 03:25:34;;;;;;;5.85;4.25;;;;;;;16.40;51.62;101218.59;5014672;28;20227;-80
2023/06/13 03:28:22;;;;;;;8.43;4.00;;;;;;;16.37;51.90;101221.38;5009127;28;20391;-80
2023/06/13 03:31:11;;;;;;;9.23;4.30;;;;;;;16.52;51.96;101217.13;5041889;28;20129;-80
2023/06/13 03:33:56;;;;;;;5.05;3.90;;;;;;;16.67;51.50;101215.50;4996548;28;20062;-79
2023/06/13 03:36:43;;;;;;;8.05;3.85;;;;;;;16.65;51.28;101217.34;5026337;28;20085;-79
2023/06/13 03:39:29;;;;;;;7.55;3.83;;;;;;;16.61;51.23;101208.66;4998519;28;20523;-79
2023/06/13 03:42:15;;;;;;;8.43;3.80;;;;;;;16.59;51.43;101218.53;5027430;28;20137;-80
2023/06/13 03:45:01;;;;;;;7.20;3.97;;;;;;;16.64;51.28;101209.47;5028586;28;20041;-79
2023/06/13 03:47:46;;;;;;;6.80;3.97;;;;;;;16.72;51.37;101215.25;5029057;28;20149;-79
2023/06/13 03:50:31;;;;;;;7.63;4.00;;;;;;;16.98;50.77;101224.63;5008122;28;20066;-79
2023/06/13 03:53:17;;;;;;;6.53;4.20;;;;;;;17.21;50.48;101215.44;5010172;28;20046;-79
2023/06/13 03:56:04;;;;;;;4.68;3.90;;;;;;;17.43;49.36;101210.78;5028047;28;20058;-79
2023/06/13 03:58:49;;;;;;;8.05;4.20;;;;;;;17.40;49.41;101222.44;4999691;28;20096;-79
2023/06/13 04:01:34;;;;;;;8.32;4.50;;;;;;;17.34;49.16;101220.13;5003014;28;20053;-79
2023/06/13 04:04:20;;;;;;;8.02;4.13;;;;;;;17.13;49.99;101212.31;5031479;28;20038;-79
2023/06/13 04:07:06;;;;;;;8.57;4.53;;;;;;;17.25;49.96;101226.78;5029780;28;20042;-79
2023/06/13 04:09:51;;;;;;;8.10;4.68;;;;;;;17.14;49.76;101227.34;5029301;28;20046;-80
2023/06/13 04:12:38;;;;;;;7.60;4.32;;;;;;;17.07;50.22;101228.63;5029104;28;20570;-79
2023/06/13 04:15:24;;;;;;;6.45;4.80;;;;;;;17.01;50.58;101228.91;5019626;28;20053;-80
2023/06/13 04:18:09;;;;;;;7.50;4.32;;;;;;;17.04;50.63;101224.28;5016991;28;20058;-80
2023/06/13 04:20:55;;;;;;;7.90;4.68;;;;;;;17.12;50.53;101234.56;5010131;28;20046;-80
2023/06/13 04:23:41;;;;;;;7.30;4.55;;;;;;;17.16;50.61;101229.94;5014721;28;20489;-80
2023/06/13 04:26:27;;;;;;;7.13;4.53;;;;;;;17.29;50.38;101238.16;5016652;28;20105;-78
2023/06/13 04:29:17;;;;;;;8.52;4.47;;;;;;;17.42;49.90;101243.69;5029590;28;20042;-82
2023/06/13 04:32:02;;;;;;;6.05;4.25;;;;;;;17.40;50.18;101235.78;5044811;28;20200;-82
2023/06/13 04:34:52;;;;;;;8.32;4.63;;;;;;;17.50;50.27;101244.16;5034278;28;20050;-81
2023/06/13 04:37:40;;;;;;;10.40;4.57;;;;;;;17.63;49.99;101237.22;5019814;28;20140;-80
2023/06/13 04:40:31;;;;;;;6.63;4.75;;;;;;;17.77;48.96;101231.16;5017753;28;20102;-82
2023/06/13 04:43:17;;;;;;;8.45;4.88;;;;;;;17.78;49.46;101240.00;5032088;28;20046;-80
2023/06/13 04:46:02;;;;;;;7.85;4.75;;;;;;;17.85;49.36;101236.06;5023895;28;20272;-82
2023/06/13 04:48:51;;;;;;;6.72;4.63;;;;;;;18.00;49.05;101237.06;5032069;28;20042;-83
2023/06/13 04:51:36;;;;;;;7.18;4.78;;;;;;;18.22;48.65;101235.84;5029577;28;20057;-81
2023/06/13 04:54:24;;;;;;;9.70;4.57;;;;;;;18.44;48.44;101239.00;5022262;28;20050;-72
2023/06/13 04:57:10;;;;;;;9.43;4.93;;;;;;;18.66;48.03;101243.13;5030681;28;20058;-72
2023/06/13 04:59:55;;;;;;;7.47;4.70;;;;;;;18.78;47.09;101239.75;5027693;28;20918;-72
2023/06/13 05:02:42;;;;;;;7.10;4.53;;;;;;;18.83;46.61;101241.25;5035642;28;20053;-72
2023/06/13 05:05:28;;;;;;;6.00;4.40;;;;;;;18.74;46.67;101246.19;5033939;28;20097;-72
2023/06/13 05:08:19;;;;;;;8.93;4.45;;;;;;;18.73;46.84;101243.63;5021406;28;20058;-72
2023/06/13 05:11:04;;;;;;;6.25;4.53;;;;;;;18.74;46.82;101245.34;5030311;28;20041;-71
2023/06/13 05:13:50;;;;;;;8.02;4.55;;;;;;;18.91;46.40;101249.72;5036459;28;20049;-71
2023/06/13 05:16:35;;;;;;;5.53;4.40;;;;;;;19.19;46.16;101256.94;5039786;28;20133;-71
2023/06/13 05:19:21;;;;;;;7.13;4.63;;;;;;;19.96;44.49;101254.06;5022796;28;20053;-71
2023/06/13 05:22:07;;;;;;;6.22;4.20;;;;;;;20.40;43.17;101245.94;5023368;28;20046;-71
2023/06/13 05:24:52;;;;;;;7.15;4.32;;;;;;;20.66;42.18;101246.00;5038873;28;20054;-71
2023/06/13 05:27:38;;;;;;;7.45;4.25;;;;;;;20.77;42.31;101244.38;5035810;28;20058;-71
2023/06/13 05:30:24;;;;;;;8.95;4.28;;;;;;;21.33;41.25;101254.00;5019788;28;20501;-71
2023/06/13 05:33:09;;;;;;;7.38;4.38;;;;;;;23.76;36.93;101242.44;5022834;28;20831;-72
2023/06/13 05:35:55;;;;;;;7.82;4.68;;;;;;;26.20;32.57;101240.72;5033968;28;20550;-72
2023/06/13 05:38:43;;;;;;;6.57;4.50;;;;;;;27.70;29.66;101235.88;5030856;28;20049;-72
2023/06/13 05:41:28;;;;;;;6.95;4.15;;;;;;;28.46;28.39;101237.44;5034255;28;20199;-71
2023/06/13 05:44:13;;;;;;;8.57;4.10;;;;;;;29.24;27.40;101226.91;5033513;28;20045;-71
2023/06/13 05:46:59;;;;;;;5.53;4.20;;;;;;;29.74;26.32;101242.47;5034623;28;20529;-71
2023/06/13 05:49:44;;;;;;;8.25;3.55;;;;;;;30.42;25.93;101234.34;5021946;28;20418;-71
2023/06/13 05:52:30;;;;;;;7.45;3.90;;;;;;;30.91;25.17;101236.25;5028700;28;20042;-71
2023/06/13 05:55:15;;;;;;;10.35;3.83;;;;;;;31.44;24.34;101242.13;5000393;28;20053;-71
2023/06/13 05:58:03;;;;;;;6.15;3.70;;;;;;;31.81;23.83;101237.06;5029116;28;20058;-71
2023/06/13 06:00:48;;;;;;;5.80;4.20;;;;;;;31.93;22.88;101232.09;5028233;28;20046;-71
2023/06/13 06:03:33;;;;;;;7.55;3.92;;;;;;;32.14;23.18;101236.06;5025966;28;20050;-71
2023/06/13 06:06:19;;;;;;;9.15;4.05;;;;;;;32.55;22.65;101243.13;5024999;28;20054;-71
2023/06/13 06:09:04;;;;;;;8.95;4.18;;;;;;;32.90;22.06;101249.88;5018279;28;20046;-71
2023/06/13 06:11:51;;;;;;;4.80;3.67;;;;;;;33.08;22.10;101240.47;5015764;28;20050;-71
2023/06/13 06:14:36;;;;;;;8.27;3.88;;;;;;;32.98;21.84;101240.75;5027700;28;20530;-71
2023/06/13 06:17:22;;;;;;;5.40;3.47;;;;;;;32.93;22.12;101243.19;5030280;28;20041;-71
2023/06/13 06:20:08;;;;;;;5.80;3.53;;;;;;;31.63;23.28;101248.22;5029559;28;20054;-71
2023/06/13 06:22:54;;;;;;;6.28;3.45;;;;;;;28.66;26.64;101249.00;5030905;28;20042;-71
2023/06/13 06:25:40;;;;;;;5.53;3.70;;;;;;;26.33;29.98;101248.56;5028915;28;20062;-72
2023/06/13 06:28:25;;;;;;;8.55;3.80;;;;;;;24.86;32.82;101257.78;5014004;28;20054;-73
2023/06/13 06:31:11;;;;;;;6.88;3.80;;;;;;;23.89;34.70;101252.09;5028856;28;20827;-71
2023/06/13 06:33:56;;;;;;;6.65;4.03;;;;;;;23.25;36.13;101253.53;5015673;28;20098;-71
2023/06/13 06:36:41;;;;;;;7.40;4.40;;;;;;;22.83;37.29;101254.97;5030869;28;20100;-71
2023/06/13 06:39:26;;;;;;;7.43;4.20;;;;;;;22.55;37.60;101252.53;5031581;28;20097;-70
2023/06/13 06:42:12;;;;;;;6.85;3.80;;;;;;;22.38;38.58;101256.47;5030843;28;20042;-70
2023/06/13 06:45:10;;;;;;;7.40;3.80;;;;;;;22.26;38.61;101255.50;5013047;28;20058;-71
2023/06/13 06:47:56;;;;;;;6.68;3.88;;;;;;;22.23;38.31;101262.94;5028979;28;20042;-70
2023/06/13 06:50:41;;;;;;;5.97;3.78;;;;;;;22.23;38.71;101265.63;5026220;28;20763;-70
2023/06/13 06:53:26;;;;;;;5.00;3.45;;;;;;;22.21;39.25;101259.50;5009777;28;20049;-70
2023/06/13 06:56:12;;;;;;;8.43;3.78;;;;;;;22.26;39.20;101265.41;5009513;28;20553;-70
2023/06/13 06:58:57;;;;;;;7.05;4.00;;;;;;;22.30;39.02;101266.88;5015211;28;20678;-70
2023/06/13 07:01:42;;;;;;;6.32;3.70;;;;;;;22.30;38.92;101269.56;5028853;28;20082;-70
2023/06/13 07:04:28;;;;;;;8.40;3.85;;;;;;;22.31;39.09;101271.28;5042701;28;20041;-70
2023/06/13 07:07:13;;;;;;;7.07;3.67;;;;;;;22.39;39.63;101268.88;5050471;28;20429;-71
2023/06/13 07:09:58;;;;;;;7.28;3.38;;;;;;;22.55;39.67;101271.31;5021611;28;20046;-70
2023/06/13 07:12:43;;;;;;;4.43;3.17;;;;;;;22.69;38.64;101272.97;5047504;28;20128;-70
2023/06/13 07:15:30;;;;;;;6.45;3.63;;;;;;;22.77;38.38;101269.72;5025878;28;20291;-70
2023/06/13 07:18:15;;;;;;;10.10;3.88;;;;;;;22.85;38.75;101266.47;5029828;28;20858;-70
2023/06/13 07:21:00;;;;;;;7.32;3.33;;;;;;;22.97;38.10;101270.91;5014456;28;20061;-70
2023/06/13 07:23:46;;;;;;;8.15;3.75;;;;;;;23.03;38.25;101267.75;5028558;28;20054;-70
2023/06/13 07:26:51;;;;;;;5.28;3.45;;;;;;;23.18;38.15;101263.00;5025466;28;20502;-71
2023/06/13 07:29:37;;;;;;;5.53;3.47;;;;;;;23.23;38.00;101270.75;5030803;28;20041;-71
2023/06/13 07:32:22;;;;;;;5.35;3.40;;;;;;;23.35;37.78;101277.03;5049604;28;20049;-70
2023/06/13 07:35:07;;;;;;;5.28;3.35;;;;;;;23.49;36.94;101274.09;5050146;28;20053;-71
2023/06/13 07:37:53;;;;;;;5.45;3.10;;;;;;;23.54;37.59;101269.25;5010871;28;20038;-70
2023/06/13 07:40:39;;;;;;;8.60;3.20;;;;;;;23.78;37.65;101264.72;5015414;28;20054;-71
2023/06/13 07:43:24;;;;;;;5.28;3.40;;;;;;;24.01;36.50;101268.28;5024252;28;20050;-70
2023/06/13 07:46:09;;;;;;;6.10;3.28;;;;;;;24.14;35.49;101273.50;5030020;28;20557;-70
2023/06/13 07:48:55;;;;;;;8.52;3.10;;;;;;;24.26;34.65;101259.06;5029339;28;20042;-71
2023/06/13 07:51:40;;;;;;;5.72;3.50;;;;;;;24.27;34.16;101266.16;5027577;28;20058;-70
2023/06/13 07:54:26;;;;;;;5.07;3.22;;;;;;;24.33;34.71;101262.09;5029866;28;20477;-70
2023/06/13 07:57:12;;;;;;;4.80;3.28;;;;;;;24.44;34.00;101278.25;5029768;28;20487;-71
2023/06/13 08:00:18;;;;;;;6.43;3.08;;;;;;;24.50;33.42;101275.03;5026342;28;20046;-71
2023/06/13 08:03:03;;;;;;;4.22;3.08;;;;;;;24.58;32.88;101269.00;5029018;28;20136;-71
2023/06/13 08:05:49;;;;;;;5.10;2.60;;;;;;;24.65;32.42;101267.50;5029264;28;20607;-71
2023/06/13 08:08:34;;;;;;;6.28;3.00;;;;;;;24.74;32.24;101270.44;5029682;28;20538;-71
2023/06/13 08:11:20;;;;;;;5.68;2.85;;;;;;;24.77;32.69;101272.88;5012760;28;20054;-71
2023/06/13 08:14:12;;;;;;;5.55;2.83;;;;;;;24.79;32.96;101268.22;5027953;28;20045;-70
2023/06/13 08:16:59;;;;;;;4.63;3.10;;;;;;;24.86;32.65;101265.88;5026771;28;20125;-70
2023/06/13 08:19:50;;;;;;;8.45;3.30;;;;;;;25.00;33.08;101267.38;5029898;28;20114;-70
2023/06/13 08:22:39;;;;;;;3.45;3.13;;;;;;;25.16;32.55;101270.47;5015043;28;20054;-70
2023/06/13 08:25:25;;;;;;;5.43;3.05;;;;;;;25.28;31.36;101266.72;5014686;28;20054;-71
2023/06/13 08:28:11;;;;;;;10.95;2.97;;;;;;;25.38;31.97;101274.03;5029013;28;20042;-70
2023/06/13 08:30:56;;;;;;;5.50;3.00;;;;;;;25.50;31.49;101269.41;5044387;28;20057;-70
2023/06/13 08:34:02;;;;;;;5.28;3.10;;;;;;;25.55;30.70;101267.19;5048871;28;20045;-71
2023/06/13 08:36:54;;;;;;;9.75;3.25;;;;;;;25.57;30.99;101266.06;5034752;28;20049;-71
2023/06/13 08:39:39;;;;;;;4.63;3.15;;;;;;;25.63;30.36;101271.94;5049570;28;20045;-71
2023/06/13 08:42:29;;;;;;;5.15;3.05;;;;;;;25.60;30.13;101270.31;5013236;28;20097;-71
2023/06/13 08:45:15;;;;;;;8.88;3.30;;;;;;;25.61;30.88;101273.91;5013633;28;20042;-71
2023/06/13 08:48:02;;;;;;;4.47;2.97;;;;;;;25.79;30.84;101266.03;5011654;28;20546;-70
2023/06/13 08:50:48;;;;;;;4.15;2.53;;;;;;;25.87;30.58;101268.91;5012682;28;20539;-70
2023/06/13 08:53:40;;;;;;;5.13;3.22;;;;;;;26.00;30.70;101260.53;5013536;28;20046;-70
2023/06/13 08:56:30;;;;;;;6.55;2.88;;;;;;;26.16;30.67;101263.59;4997883;28;20046;-71
2023/06/13 08:59:24;;;;;;;4.30;2.95;;;;;;;26.38;29.82;101258.94;4998183;28;20046;-70
2023/06/13 09:02:18;;;;;;;4.97;3.08;;;;;;;26.54;29.25;101257.56;5012932;28;20054;-71
2023/06/13 09:05:04;;;;;;;9.10;3.20;;;;;;;26.65;30.05;101252.00;4998747;28;20054;-70
2023/06/13 09:07:51;;;;;;;7.22;3.22;;;;;;;26.81;29.06;101256.84;5031954;28;20050;-70
2023/06/13 09:10:38;;;;;;;5.90;2.72;;;;;;;26.88;28.57;101247.19;5013709;28;20160;-71
2023/06/13 09:13:25;;;;;;;6.63;3.00;;;;;;;26.87;29.46;101245.47;5003156;28;20098;-70
2023/06/13 09:16:11;;;;;;;8.23;3.13;;;;;;;27.04;28.69;101243.03;5032036;28;20053;-71
2023/06/13 09:18:57;;;;;;;4.93;2.50;;;;;;;27.21;27.65;101247.72;5021070;28;20145;-71
2023/06/13 09:21:43;;;;;;;6.65;2.90;;;;;;;27.15;27.64;101239.31;5030943;28;20598;-71
2023/06/13 09:24:32;;;;;;;4.57;2.83;;;;;;;27.15;28.07;101236.63;5016544;28;20042;-70
2023/06/13 09:27:18;;;;;;;6.15;3.00;;;;;;;27.25;27.83;101243.69;5032121;28;20058;-70
2023/06/13 09:30:05;;;;;;;5.00;2.97;;;;;;;27.41;27.14;101242.25;5030662;28;21601;-70
2023/06/13 09:32:51;;;;;;;4.20;3.00;;;;;;;27.41;26.96;101247.66;5031311;28;20050;-70
2023/06/13 09:35:38;;;;;;;5.07;3.03;;;;;;;27.37;27.17;101240.81;5032256;28;20046;-70
2023/06/13 09:38:25;;;;;;;6.93;3.22;;;;;;;27.27;27.49;101240.84;5031392;28;20050;-70
2023/06/13 09:41:12;;;;;;;5.30;2.70;;;;;;;27.35;27.50;101251.81;5030325;28;20053;-71
2023/06/13 09:44:04;;;;;;;6.38;3.05;;;;;;;27.47;27.42;101233.56;5017320;28;20050;-71
2023/06/13 09:46:51;;;;;;;5.07;3.13;;;;;;;27.61;26.65;101244.91;5031822;28;20041;-71
2023/06/13 09:49:37;;;;;;;5.47;3.10;;;;;;;27.57;26.12;101236.25;5030742;28;20046;-71
2023/06/13 09:52:37;;;;;;;4.40;3.03;;;;;;;27.65;26.87;101240.88;5031263;28;20174;-71
2023/06/13 09:55:22;;;;;;;4.43;2.65;;;;;;;27.80;26.03;101228.56;5031132;28;20545;-71
2023/06/13 09:58:08;;;;;;;4.78;2.85;;;;;;;27.93;26.50;101233.63;5031278;28;20049;-71
2023/06/13 10:01:15;;;;;;;4.40;3.22;;;;;;;28.00;25.91;101228.47;5012050;28;20359;-71
2023/06/13 10:04:02;;;;;;;4.15;3.00;;;;;;;28.11;25.57;101232.84;5016264;28;20501;-71
2023/06/13 10:06:48;;;;;;;3.72;2.35;;;;;;;28.09;24.28;101230.28;5031985;28;20094;-71
2023/06/13 10:09:33;;;;;;;3.03;2.40;;;;;;;28.07;24.32;101232.25;5032314;28;20046;-71
2023/06/13 10:12:21;;;;;;;6.20;2.80;;;;;;;28.01;23.28;101232.88;5030789;28;20481;-71
2023/06/13 10:15:11;;;;;;;4.95;2.75;;;;;;;27.84;23.77;101231.81;5030791;28;20058;-71
2023/06/13 10:18:05;;;;;;;3.63;2.60;;;;;;;27.96;24.57;101230.63;4996571;28;20069;-71
2023/06/13 10:20:55;;;;;;;3.92;2.70;;;;;;;28.24;24.12;101219.78;5011813;28;20530;-71
2023/06/13 10:23:49;;;;;;;4.85;3.05;;;;;;;28.42;23.37;101225.22;5014035;28;20057;-71
2023/06/13 10:26:43;;;;;;;;;;;;;;;28.55;22.76;101226.66;5011310;28;20058;-71
2023/06/13 10:29:46;;;;;;;8.18;2.83;;;;;;;28.56;22.90;101218.38;5013602;28;20446;-70
2023/06/13 10:32:53;;;;;;;3.88;2.60;;;;;;;28.55;23.46;101213.97;4992178;28;20035;-71
2023/06/13 10:35:57;;;;;;;4.47;2.63;;;;;;;28.72;22.85;101217.72;5009459;28;20530;-71
2023/06/13 10:39:13;;;;;;;4.45;2.60;;;;;;;28.64;22.93;101215.75;5011806;28;20050;-71
2023/06/13 10:42:12;;;;;;;4.00;2.72;;;;;;;28.61;22.69;101217.91;5022339;28;20050;-71
2023/06/13 10:45:24;;;;;;;3.25;2.65;;;;;;;28.61;22.24;101209.78;5009963;28;20050;-71
2023/06/13 10:48:10;;;;;;;4.22;2.58;;;;;;;28.63;22.67;101219.47;5010938;28;20059;-71
2023/06/13 10:50:57;;;;;;;4.85;2.60;;;;;;;28.62;23.05;101204.19;5010954;28;20046;-71
2023/06/13 10:53:42;;;;;;;3.83;2.50;;;;;;;28.75;23.35;101211.94;5010079;28;20137;-71
2023/06/13 10:56:34;;;;;;;5.18;3.00;;;;;;;28.88;23.09;101198.00;5011491;28;20148;-71
2023/06/13 10:59:19;;;;;;;7.30;2.72;;;;;;;28.90;23.46;101193.25;5011780;28;20057;-71
2023/06/13 11:02:12;;;;;;;4.95;2.80;;;;;;;28.93;23.56;101198.34;5011299;28;20046;-71
2023/06/13 11:05:01;;;;;;;10.48;2.97;;;;;;;28.97;23.67;101193.47;5007782;28;20051;-71
2023/06/13 11:07:46;;;;;;;5.47;2.63;;;;;;;29.06;24.13;101183.53;5009621;28;20544;-71
2023/06/13 11:10:35;;;;;;;6.45;3.17;;;;;;;29.20;23.57;101193.78;5007906;28;20206;-71
2023/06/13 11:13:30;;;;;;;4.80;2.97;;;;;;;29.28;22.92;101188.41;5006173;28;20042;-71
2023/06/13 11:16:35;;;;;;;4.88;2.95;;;;;;;29.20;23.13;101185.63;5009061;28;20121;-71
2023/06/13 11:19:27;;;;;;;3.38;2.50;;;;;;;29.31;22.43;101189.06;5010300;28;20138;-71
2023/06/13 11:22:13;;;;;;;3.72;2.47;;;;;;;29.22;22.11;101183.59;5015107;28;20047;-71
2023/06/13 11:24:59;;;;;;;10.90;2.72;;;;;;;29.12;22.60;101185.59;5009387;28;20042;-71
2023/06/13 11:27:46;;;;;;;9.95;3.10;;;;;;;29.17;21.95;101180.53;5009933;28;20499;-71
2023/06/13 11:30:32;;;;;;;3.90;2.63;;;;;;;29.31;21.69;101170.94;5008726;28;20689;-71
2023/06/13 11:33:19;;;;;;;8.10;2.78;;;;;;;29.21;22.28;101172.91;4994797;28;20090;-71
2023/06/13 11:36:06;;;;;;;6.65;3.10;;;;;;;29.40;22.42;101170.00;5007204;28;20426;-71
2023/06/13 11:39:09;;;;;;;4.10;2.70;;;;;;;29.67;22.54;101165.34;5010559;28;20042;-71
2023/06/13 11:41:55;;;;;;;9.38;2.88;;;;;;;29.91;21.45;101178.13;5009681;28;20055;-72
2023/06/13 11:44:42;;;;;;;9.95;3.10;;;;;;;29.68;21.06;101190.66;5005493;28;20042;-71
2023/06/13 11:47:28;;;;;;;5.78;3.00;;;;;;;29.57;21.47;101178.19;5009333;28;20050;-71
2023/06/13 11:50:13;;;;;;;6.07;2.85;;;;;;;29.54;21.08;101173.13;5008643;28;20054;-71
2023/06/13 11:53:09;;;;;;;7.32;2.88;;;;;;;29.51;21.26;101170.72;5009917;28;20259;-71
2023/06/13 11:56:04;;;;;;;8.00;3.25;;;;;;;29.48;21.34;101171.03;5010018;28;20482;-70
2023/06/13 11:58:52;;;;;;;6.10;2.50;;;;;;;29.57;21.40;101172.78;5010362;28;20049;-71
2023/06/13 12:01:38;;;;;;;5.82;3.00;;;;;;;29.38;21.35;101165.75;5010185;28;20478;-71
2023/06/13 12:04:25;;;;;;;4.38;2.80;;;;;;;29.28;21.32;101165.81;5008226;28;20169;-72
2023/06/13 12:07:13;;;;;;;5.65;3.00;;;;;;;29.20;21.59;101161.19;5010492;28;20137;-71
2023/06/13 12:09:58;;;;;;;4.68;2.70;;;;;;;29.25;21.21;101150.72;5010149;28;20080;-71
2023/06/13 12:13:04;;;;;;;4.72;3.13;;;;;;;29.24;21.36;101156.31;5021174;28;20042;-71
2023/06/13 12:15:49;;;;;;;3.60;2.78;;;;;;;29.38;21.32;101152.19;5002735;28;20046;-70
2023/06/13 12:18:35;;;;;;;5.80;3.00;;;;;;;29.48;20.87;101149.31;4993982;28;20042;-71
2023/06/13 12:21:34;;;;;;;6.18;3.40;;;;;;;29.66;21.25;101155.47;5008183;28;20043;-71
2023/06/13 12:24:20;;;;;;;3.75;2.85;;;;;;;29.77;21.17;101150.75;5009462;28;20039;-71
2023/06/13 12:27:07;;;;;;;5.32;2.70;;;;;;;29.84;20.92;101138.25;5019296;28;20054;-71
2023/06/13 12:29:52;;;;;;;5.35;2.70;;;;;;;30.18;20.26;101145.44;5031975;28;20041;-71
2023/06/13 12:32:43;;;;;;;5.97;2.92;;;;;;;29.99;20.26;101146.63;5012380;28;20045;-71
2023/06/13 12:35:30;;;;;;;6.28;3.22;;;;;;;29.84;20.76;101141.78;5011173;28;20053;-71
2023/06/13 12:38:26;;;;;;;3.72;2.85;;;;;;;29.86;20.59;101141.66;5016496;28;20117;-71
2023/06/13 12:41:14;;;;;;;4.03;2.72;;;;;;;30.01;20.49;101147.31;5027636;28;20054;-71
2023/06/13 12:44:00;;;;;;;5.30;2.97;;;;;;;29.96;20.31;101139.66;5011745;28;20084;-71
2023/06/13 12:46:46;;;;;;;4.57;2.83;;;;;;;29.82;20.41;101141.09;5029167;28;20061;-71
2023/06/13 12:49:37;;;;;;;4.80;2.60;;;;;;;29.81;20.56;101139.41;5010323;28;20475;-71
2023/06/13 12:52:22;;;;;;;7.22;2.83;;;;;;;29.86;19.49;101149.78;5026755;28;20050;-71
2023/06/13 12:55:08;;;;;;;6.80;2.60;;;;;;;29.87;20.11;101140.59;5029111;28;20489;-71
2023/06/13 12:57:53;;;;;;;10.68;2.90;;;;;;;29.99;20.10;101139.31;5013997;28;20509;-71
2023/06/13 13:00:46;;;;;;;3.55;2.63;;;;;;;30.25;20.08;101146.47;5027701;28;20046;-71